createdAt,value
2023-01-25T00:02:20.189Z,101368.38
2023-01-25T00:04:47.469Z,101355.56
2023-01-25T00:07:14.663Z,101359.88
2023-01-25T00:09:41.956Z,101361.81
2023-01-25T00:12:09.256Z,101361.97
2023-01-25T00:14:36.452Z,101351.50
2023-01-25T00:17:03.702Z,101351.06
2023-01-25T00:19:31.194Z,101356.41
2023-01-25T00:21:58.462Z,101345.56
2023-01-25T00:24:26.403Z,101349.88
2023-01-25T00:26:53.687Z,101346.44
2023-01-25T00:29:20.911Z,101343.75
2023-01-25T00:31:51.636Z,101340.31
2023-01-25T00:34:25.142Z,101346.13
2023-01-25T00:36:57.033Z,101333.47
2023-01-25T00:39:26.162Z,101333.00
2023-01-25T00:41:53.389Z,101335.06
2023-01-25T00:44:20.738Z,101322.53
2023-01-25T00:46:48.267Z,101321.81
2023-01-25T00:49:23.037Z,101320.16
2023-01-25T00:51:50.607Z,101309.28
2023-01-25T00:54:18.285Z,101312.56
2023-01-25T00:56:46.360Z,101306.88
2023-01-25T00:59:13.980Z,101302.56
2023-01-25T01:01:42.157Z,101305.34
2023-01-25T01:04:09.712Z,101302.06
2023-01-25T01:06:38.094Z,101294.75
2023-01-25T01:09:06.287Z,101307.59
2023-01-25T01:11:34.022Z,101306.56
2023-01-25T01:14:01.218Z,101303.88
2023-01-25T01:16:30.939Z,101297.00
2023-01-25T01:18:58.246Z,101289.25
2023-01-25T01:21:25.664Z,101296.28
2023-01-25T01:23:54.454Z,101294.38
2023-01-25T01:26:21.676Z,101286.31
2023-01-25T01:28:49.611Z,101286.94
2023-01-25T01:31:19.908Z,101276.78
2023-01-25T01:33:56.522Z,101278.56
2023-01-25T01:36:25.635Z,101274.38
2023-01-25T01:38:52.899Z,101273.38
2023-01-25T01:41:20.557Z,101271.72
2023-01-25T01:43:48.347Z,101272.34
2023-01-25T01:46:29.218Z,101272.34
2023-01-25T01:49:06.607Z,101272.19
2023-01-25T01:51:43.185Z,101270.38
2023-01-25T01:54:15.045Z,101262.06
2023-01-25T01:56:56.573Z,101257.88
2023-01-25T01:59:26.740Z,101255.19
2023-01-25T02:01:54.834Z,101254.75
2023-01-25T02:04:23.086Z,101257.44
2023-01-25T02:07:13.825Z,101253.25
2023-01-25T02:09:42.048Z,101249.97
2023-01-25T02:12:09.732Z,101252.38
2023-01-25T02:14:37.861Z,101253.41
2023-01-25T02:17:05.339Z,101254.47
2023-01-25T02:19:38.832Z,101255.34
2023-01-25T02:22:10.388Z,101260.41
2023-01-25T02:24:39.985Z,101267.25
2023-01-25T02:27:07.223Z,101265.63
2023-01-25T02:29:34.922Z,101255.34
2023-01-25T02:32:05.817Z,101256.81
2023-01-25T02:34:33.121Z,101251.75
2023-01-25T02:37:00.754Z,101258.47
2023-01-25T02:39:28.493Z,101262.06
2023-01-25T02:41:55.812Z,101262.78
2023-01-25T02:44:32.175Z,101267.84
2023-01-25T02:47:00.709Z,101264.44
2023-01-25T02:49:27.953Z,101268.59
2023-01-25T02:51:57.515Z,101264.28
2023-01-25T02:54:26.962Z,101273.09
2023-01-25T02:56:54.973Z,101271.59
2023-01-25T02:59:24.310Z,101275.16
2023-01-25T03:01:55.658Z,101267.69
2023-01-25T03:04:23.307Z,101263.34
2023-01-25T03:06:50.624Z,101270.97
2023-01-25T03:09:18.786Z,101267.41
2023-01-25T03:11:48.749Z,101269.19
2023-01-25T03:14:17.677Z,101268.44
2023-01-25T03:16:44.956Z,101261.72
2023-01-25T03:19:12.845Z,101249.94
2023-01-25T03:21:41.675Z,101245.91
2023-01-25T03:24:10.081Z,101240.84
2023-01-25T03:27:01.487Z,101246.94
2023-01-25T03:29:41.822Z,101239.78
2023-01-25T03:32:14.350Z,101235.03
2023-01-25T03:34:41.667Z,101233.38
2023-01-25T03:37:09.734Z,101242.75
2023-01-25T03:39:39.162Z,101231.72
2023-01-25T03:42:07.528Z,101234.25
2023-01-25T03:44:34.730Z,101230.97
2023-01-25T03:47:02.477Z,101230.97
2023-01-25T03:49:30.798Z,101234.25
2023-01-25T03:51:58.785Z,101242.31
2023-01-25T03:54:36.072Z,101245.75
2023-01-25T03:57:03.814Z,101239.50
2023-01-25T03:59:35.643Z,101231.91
2023-01-25T04:02:03.096Z,101236.97
2023-01-25T04:04:30.525Z,101245.91
2023-01-25T04:06:57.751Z,101241.88
2023-01-25T04:09:25.639Z,101241.13
2023-01-25T04:11:56.593Z,101245.28
2023-01-25T04:14:42.511Z,101240.84
2023-01-25T04:17:13.079Z,101233.69
2023-01-25T04:20:00.597Z,101234.16
2023-01-25T04:22:35.184Z,101232.53
2023-01-25T04:25:04.369Z,101226.69
2023-01-25T04:27:32.583Z,101229.09
2023-01-25T04:30:06.006Z,101230.75
2023-01-25T04:32:36.755Z,101234.00
2023-01-25T04:35:08.784Z,101243.13
2023-01-25T04:37:36.624Z,101237.16
2023-01-25T04:40:04.317Z,101240.59
2023-01-25T04:42:36.515Z,101241.47
2023-01-25T04:45:04.962Z,101239.97
2023-01-25T04:47:32.359Z,101245.78
2023-01-25T04:49:59.727Z,101243.25
2023-01-25T04:52:30.220Z,101249.22
2023-01-25T04:54:57.525Z,101256.25
2023-01-25T04:57:25.362Z,101254.59
2023-01-25T04:59:53.359Z,101249.66
2023-01-25T05:02:23.029Z,101251.91
2023-01-25T05:04:50.427Z,101257.56
2023-01-25T05:07:20.306Z,101256.41
2023-01-25T05:09:47.791Z,101251.66
2023-01-25T05:12:15.105Z,101244.97
2023-01-25T05:14:59.360Z,101245.91
2023-01-25T05:17:26.657Z,101249.34
2023-01-25T05:19:54.005Z,101254.28
2023-01-25T05:22:23.751Z,101244.31
2023-01-25T05:24:54.309Z,101250.56
2023-01-25T05:27:22.265Z,101250.56
2023-01-25T05:29:56.014Z,101247.91
2023-01-25T05:32:50.553Z,101252.66
2023-01-25T05:35:18.228Z,101261.00
2023-01-25T05:37:46.198Z,101265.19
2023-01-25T05:40:22.135Z,101262.66
2023-01-25T05:43:00.224Z,101260.59
2023-01-25T05:45:30.342Z,101259.84
2023-01-25T05:47:59.050Z,101243.88
2023-01-25T05:50:33.870Z,101243.75
2023-01-25T05:53:05.131Z,101245.53
2023-01-25T05:55:35.488Z,101246.88
2023-01-25T05:58:06.505Z,101237.00
2023-01-25T06:00:33.768Z,101243.09
2023-01-25T06:03:02.418Z,101238.94
2023-01-25T06:05:31.934Z,101244.91
2023-01-25T06:07:59.791Z,101248.63
2023-01-25T06:10:33.260Z,101248.00
2023-01-25T06:13:00.653Z,101246.09
2023-01-25T06:15:28.165Z,101246.09
2023-01-25T06:18:01.283Z,101254.88
2023-01-25T06:20:40.031Z,101244.44
2023-01-25T06:23:07.337Z,101243.97
2023-01-25T06:25:34.698Z,101246.03
2023-01-25T06:28:01.939Z,101243.06
2023-01-25T06:30:29.353Z,101244.53
2023-01-25T06:32:59.762Z,101236.22
2023-01-25T06:35:27.456Z,101239.63
2023-01-25T06:37:58.280Z,101231.41
2023-01-25T06:40:26.045Z,101235.28
2023-01-25T06:42:53.401Z,101246.94
2023-01-25T06:45:20.661Z,101241.41
2023-01-25T06:47:48.973Z,101250.19
2023-01-25T06:50:16.333Z,101247.47
2023-01-25T06:52:43.535Z,101244.06
2023-01-25T06:55:14.023Z,101242.13
2023-01-25T06:57:43.735Z,101248.97
2023-01-25T07:00:11.404Z,101244.06
2023-01-25T07:02:38.780Z,101247.91
2023-01-25T07:05:06.351Z,101248.38
2023-01-25T07:07:33.702Z,101256.44
2023-01-25T07:10:02.135Z,101256.44
2023-01-25T07:12:30.633Z,101251.50
2023-01-25T07:14:57.914Z,101256.41
2023-01-25T07:17:25.264Z,101244.16
2023-01-25T07:19:54.574Z,101247.88
2023-01-25T07:22:21.872Z,101245.34
2023-01-25T07:24:50.942Z,101244.44
2023-01-25T07:27:18.285Z,101247.13
2023-01-25T07:29:45.556Z,101243.84
2023-01-25T07:32:15.040Z,101239.34
2023-01-25T07:34:42.795Z,101243.53
2023-01-25T07:37:10.279Z,101235.28
2023-01-25T07:39:37.824Z,101234.72
2023-01-25T07:42:05.269Z,101241.28
2023-01-25T07:44:33.155Z,101242.94
2023-01-25T07:47:18.410Z,101245.63
2023-01-25T07:49:45.601Z,101242.06
2023-01-25T07:52:12.888Z,101240.53
2023-01-25T07:54:40.114Z,101238.19
2023-01-25T07:57:07.386Z,101240.44
2023-01-25T07:59:34.629Z,101235.81
2023-01-25T08:02:01.869Z,101234.31
2023-01-25T08:04:29.129Z,101235.34
2023-01-25T08:06:56.699Z,101232.03
2023-01-25T08:09:23.969Z,101229.81
2023-01-25T08:11:51.459Z,101226.03
2023-01-25T08:14:18.747Z,101233.47
2023-01-25T08:16:46.041Z,101231.63
2023-01-25T08:19:13.342Z,101226.69
2023-01-25T08:21:40.988Z,101225.22
2023-01-25T08:24:08.638Z,101225.97
2023-01-25T08:26:36.408Z,101224.31
2023-01-25T08:29:04.165Z,101220.13
2023-01-25T08:31:32.670Z,101229.03
2023-01-25T08:34:00.520Z,101231.13
2023-01-25T08:36:28.359Z,101223.78
2023-01-25T08:38:57.074Z,101221.09
2023-01-25T08:41:24.744Z,101212.34
2023-01-25T08:43:53.609Z,101218.31
2023-01-25T08:46:21.472Z,101218.56
2023-01-25T08:48:48.950Z,101220.34
2023-01-25T08:51:16.735Z,101210.06
2023-01-25T08:53:44.081Z,101199.78
2023-01-25T08:56:13.355Z,101199.91
2023-01-25T08:58:42.039Z,101192.56
2023-01-25T09:01:10.937Z,101191.34
2023-01-25T09:03:39.114Z,101196.56
2023-01-25T09:06:06.920Z,101186.53
2023-01-25T09:08:34.651Z,101177.22
2023-01-25T09:11:12.464Z,101180.50
2023-01-25T09:13:44.223Z,101178.47
2023-01-25T09:16:13.977Z,101170.84
2023-01-25T09:18:42.417Z,101170.84
2023-01-25T09:21:11.388Z,101166.69
2023-01-25T09:23:50.828Z,101164.88
2023-01-25T09:26:18.962Z,101163.97
2023-01-25T09:28:50.973Z,101163.97
2023-01-25T09:31:22.797Z,101157.81
2023-01-25T09:34:14.595Z,101158.19
2023-01-25T09:36:42.233Z,101152.69
2023-01-25T09:39:12.957Z,101142.72
2023-01-25T09:41:46.027Z,101145.88
2023-01-25T09:44:31.801Z,101133.22
2023-01-25T09:47:02.145Z,101129.63
2023-01-25T09:49:29.517Z,101126.75
2023-01-25T09:52:07.884Z,101119.00
2023-01-25T09:54:47.162Z,101113.31
2023-01-25T09:57:17.836Z,101113.69
2023-01-25T09:59:47.396Z,101104.56
2023-01-25T10:02:33.040Z,101112.06
2023-01-25T10:05:20.697Z,101117.63
2023-01-25T10:08:02.248Z,101101.22
2023-01-25T10:10:39.789Z,101104.38
2023-01-25T10:13:11.354Z,101094.75
2023-01-25T10:15:44.544Z,101083.59
2023-01-25T10:18:19.391Z,101081.56
2023-01-25T10:20:53.473Z,101086.44
2023-01-25T10:23:33.418Z,101080.88
2023-01-25T10:26:06.046Z,101086.31
2023-01-25T10:29:03.069Z,101094.50
2023-01-25T10:31:41.631Z,101088.41
2023-01-25T10:34:17.255Z,101091.47
2023-01-25T10:36:45.889Z,101102.50
2023-01-25T10:39:13.132Z,101094.91
2023-01-25T10:41:47.528Z,101082.59
2023-01-25T10:44:29.221Z,101088.19
2023-01-25T10:47:15.206Z,101078.41
2023-01-25T10:49:50.608Z,101071.09
2023-01-25T10:52:21.590Z,101071.78
2023-01-25T10:55:06.643Z,101063.78
2023-01-25T10:57:35.656Z,101066.09
2023-01-25T11:00:11.285Z,101063.59
2023-01-25T11:02:41.306Z,101056.28
2023-01-25T11:05:23.802Z,101052.94
2023-01-25T11:07:51.168Z,101048.19
2023-01-25T11:10:32.554Z,101044.38
2023-01-25T11:13:16.720Z,101050.09
2023-01-25T11:15:53.498Z,101054.72
2023-01-25T11:18:25.553Z,101041.53
2023-01-25T11:21:15.136Z,101035.34
2023-01-25T11:23:42.423Z,101039.50
2023-01-25T11:26:17.658Z,101028.47
2023-01-25T11:28:45.816Z,101038.06
2023-01-25T11:31:14.280Z,101025.63
2023-01-25T11:33:42.443Z,101025.31
2023-01-25T11:36:31.735Z,101008.59
2023-01-25T11:39:04.252Z,101013.16
2023-01-25T11:41:35.062Z,100995.78
2023-01-25T11:44:15.082Z,100993.44
2023-01-25T11:46:45.990Z,100998.44
2023-01-25T11:49:26.491Z,100997.34
2023-01-25T11:52:06.552Z,100993.72
2023-01-25T11:54:49.748Z,100998.47
2023-01-25T11:57:20.017Z,100999.78
2023-01-25T12:00:05.948Z,101002.69
2023-01-25T12:02:51.434Z,101003.38
2023-01-25T12:05:21.934Z,100998.06
2023-01-25T12:07:55.571Z,100998.72
2023-01-25T12:10:29.665Z,100999.91
2023-01-25T12:13:06.581Z,101004.97
2023-01-25T12:15:33.835Z,101000.25
2023-01-25T12:18:19.678Z,101002.09
2023-01-25T12:20:59.193Z,101002.81
2023-01-25T12:23:32.467Z,100990.59
2023-01-25T12:26:13.409Z,100996.75
2023-01-25T12:28:42.680Z,100995.84
2023-01-25T12:31:36.595Z,100994.28
2023-01-25T12:34:05.321Z,100987.88
2023-01-25T12:36:39.722Z,100990.84
2023-01-25T12:39:07.110Z,100989.47
2023-01-25T12:41:46.632Z,100987.19
2023-01-25T12:44:32.801Z,100988.91
2023-01-25T12:47:15.010Z,100990.88
2023-01-25T12:49:52.234Z,100971.09
2023-01-25T12:52:32.141Z,100974.84
2023-01-25T12:55:06.215Z,100962.81
2023-01-25T12:57:57.388Z,100960.03
2023-01-25T13:00:34.086Z,100962.94
2023-01-25T13:03:11.291Z,100962.88
2023-01-25T13:05:38.505Z,100969.28
2023-01-25T13:08:30.147Z,100968.81
2023-01-25T13:11:14.326Z,100968.13
2023-01-25T13:13:47.408Z,100949.25
2023-01-25T13:16:31.174Z,100955.47
2023-01-25T13:18:58.746Z,100954.19
2023-01-25T13:21:45.353Z,100950.78
2023-01-25T13:24:14.383Z,100938.09
2023-01-25T13:26:48.685Z,100951.50
2023-01-25T13:29:28.257Z,100944.94
2023-01-25T13:31:59.196Z,100943.31
2023-01-25T13:34:43.090Z,100935.72
2023-01-25T13:37:13.795Z,100921.41
2023-01-25T13:39:42.163Z,100908.25
2023-01-25T13:42:09.359Z,100906.78
2023-01-25T13:44:39.609Z,100905.94
2023-01-25T13:47:10.683Z,100916.47
2023-01-25T13:49:41.075Z,100897.25
2023-01-25T13:52:14.679Z,100892.53
2023-01-25T13:54:48.991Z,100889.56
2023-01-25T13:57:23.773Z,100885.41
2023-01-25T14:00:11.391Z,100877.94
2023-01-25T14:02:39.673Z,100880.16
2023-01-25T14:05:07.894Z,100869.56
2023-01-25T14:07:37.106Z,100868.56
2023-01-25T14:10:10.673Z,100870.59
2023-01-25T14:12:40.364Z,100862.59
2023-01-25T14:15:30.704Z,100864.66
2023-01-25T14:18:24.383Z,100853.19
2023-01-25T14:20:54.415Z,100856.66
2023-01-25T14:23:25.350Z,100855.47
2023-01-25T14:25:54.077Z,100868.19
2023-01-25T14:28:21.851Z,100872.06
2023-01-25T14:30:53.540Z,100857.50
2023-01-25T14:33:20.811Z,100857.50
2023-01-25T14:35:59.977Z,100860.31
2023-01-25T14:38:33.467Z,100859.56
2023-01-25T14:41:07.674Z,100856.09
2023-01-25T14:43:38.110Z,100848.38
2023-01-25T14:46:19.787Z,100847.91
2023-01-25T14:48:47.271Z,100855.22
2023-01-25T14:51:17.102Z,100867.06
2023-01-25T14:53:46.783Z,100865.56
2023-01-25T14:56:20.104Z,100861.66
2023-01-25T14:58:59.073Z,100857.16
2023-01-25T15:01:33.078Z,100864.81
2023-01-25T15:04:00.404Z,100863.16
2023-01-25T15:06:30.665Z,100866.94
2023-01-25T15:08:59.267Z,100871.06
2023-01-25T15:11:49.101Z,100875.91
2023-01-25T15:14:18.274Z,100871.56
2023-01-25T15:16:45.781Z,100863.22
2023-01-25T15:19:34.749Z,100865.16
2023-01-25T15:22:01.939Z,100864.84
2023-01-25T15:24:29.147Z,100866.50
2023-01-25T15:26:57.099Z,100863.47
2023-01-25T15:29:28.900Z,100848.88
2023-01-25T15:31:56.280Z,100854.31
2023-01-25T15:34:26.066Z,100851.75
2023-01-25T15:36:53.344Z,100846.72
2023-01-25T15:39:20.822Z,100837.81
2023-01-25T15:41:48.221Z,100843.22
2023-01-25T15:44:15.664Z,100841.06
2023-01-25T15:46:45.176Z,100834.38
2023-01-25T15:49:21.267Z,100831.97
2023-01-25T15:51:48.519Z,100837.28
2023-01-25T15:54:15.821Z,100838.00
2023-01-25T15:56:43.719Z,100831.19
2023-01-25T15:59:15.667Z,100830.16
2023-01-25T16:01:43.428Z,100819.09
2023-01-25T16:04:13.605Z,100819.47
2023-01-25T16:06:45.091Z,100825.88
2023-01-25T16:09:15.482Z,100820.69
2023-01-25T16:11:43.401Z,100819.78
2023-01-25T16:14:11.253Z,100818.91
2023-01-25T16:16:40.584Z,100815.69
2023-01-25T16:19:07.914Z,100818.22
2023-01-25T16:21:35.167Z,100814.78
2023-01-25T16:24:02.496Z,100828.00
2023-01-25T16:26:29.895Z,100824.16
2023-01-25T16:28:57.255Z,100822.50
2023-01-25T16:31:33.009Z,100811.06
2023-01-25T16:34:01.300Z,100804.44
2023-01-25T16:36:29.083Z,100807.63
2023-01-25T16:38:56.496Z,100810.16
2023-01-25T16:41:24.084Z,100793.16
2023-01-25T16:43:53.660Z,100784.56
2023-01-25T16:46:22.560Z,100786.50
2023-01-25T16:48:51.410Z,100784.88
2023-01-25T16:51:18.793Z,100780.25
2023-01-25T16:53:46.657Z,100778.41
2023-01-25T16:56:18.427Z,100768.31
2023-01-25T16:58:46.320Z,100772.44
2023-01-25T17:01:14.238Z,100756.72
2023-01-25T17:03:41.806Z,100761.78
2023-01-25T17:06:15.392Z,100765.66
2023-01-25T17:08:42.718Z,100778.13
2023-01-25T17:11:09.919Z,100800.94
2023-01-25T17:13:37.279Z,100790.72
2023-01-25T17:16:04.688Z,100787.00
2023-01-25T17:18:34.515Z,100784.91
2023-01-25T17:21:05.099Z,100785.63
2023-01-25T17:23:33.521Z,100769.56
2023-01-25T17:26:08.425Z,100783.59
2023-01-25T17:28:36.195Z,100784.53
2023-01-25T17:31:03.803Z,100782.72
2023-01-25T17:33:33.722Z,100785.28
2023-01-25T17:36:01.842Z,100781.09
2023-01-25T17:38:29.086Z,100773.56
2023-01-25T17:40:56.404Z,100766.75
2023-01-25T17:43:23.641Z,100760.63
2023-01-25T17:45:51.049Z,100770.91
2023-01-25T17:48:18.267Z,100775.56
2023-01-25T17:50:45.480Z,100774.84
2023-01-25T17:53:12.714Z,100778.88
2023-01-25T17:55:40.004Z,100766.97
2023-01-25T17:58:07.242Z,100763.63
2023-01-25T18:00:34.602Z,100758.44
2023-01-25T18:03:01.904Z,100768.50
2023-01-25T18:05:29.325Z,100744.84
2023-01-25T18:07:56.705Z,100756.91
2023-01-25T18:10:24.120Z,100758.69
2023-01-25T18:13:04.156Z,100761.03
2023-01-25T18:15:33.054Z,100764.91
2023-01-25T18:18:00.809Z,100763.59
2023-01-25T18:20:28.712Z,100759.13
2023-01-25T18:22:56.727Z,100757.47
2023-01-25T18:25:29.168Z,100761.19
2023-01-25T18:27:56.552Z,100750.47
2023-01-25T18:30:29.991Z,100757.94
2023-01-25T18:32:57.214Z,100741.88
2023-01-25T18:35:25.283Z,100746.66
2023-01-25T18:37:52.537Z,100741.69
2023-01-25T18:40:20.046Z,100745.69
2023-01-25T18:42:47.500Z,100736.72
2023-01-25T18:45:14.921Z,100744.75
2023-01-25T18:47:42.181Z,100732.56
2023-01-25T18:50:12.098Z,100728.91
2023-01-25T18:52:39.427Z,100730.03
2023-01-25T18:55:06.972Z,100727.34
2023-01-25T18:57:34.319Z,100723.19
2023-01-25T19:00:01.625Z,100720.84
2023-01-25T19:02:31.285Z,100715.78
2023-01-25T19:05:00.492Z,100704.66
2023-01-25T19:07:28.045Z,100709.88
2023-01-25T19:09:55.516Z,100705.13
2023-01-25T19:12:22.784Z,100710.66
2023-01-25T19:14:50.046Z,100710.19
2023-01-25T19:17:17.437Z,100699.47
2023-01-25T19:19:44.691Z,100690.00
2023-01-25T19:22:11.963Z,100688.22
2023-01-25T19:24:39.211Z,100688.78
2023-01-25T19:27:06.422Z,100695.63
2023-01-25T19:29:33.692Z,100687.59
2023-01-25T19:32:01.003Z,100685.50
2023-01-25T19:34:28.230Z,100673.63
2023-01-25T19:36:55.906Z,100677.06
2023-01-25T19:39:23.236Z,100682.22
2023-01-25T19:41:52.105Z,100677.19
2023-01-25T19:44:19.386Z,100671.16
2023-01-25T19:46:47.111Z,100676.38
2023-01-25T19:49:15.130Z,100680.56
2023-01-25T19:51:45.488Z,100682.63
2023-01-25T19:54:15.908Z,100681.56
2023-01-25T19:56:44.183Z,100679.44
2023-01-25T19:59:12.880Z,100671.59
2023-01-25T20:01:46.689Z,100670.69
2023-01-25T20:04:15.796Z,100666.66
2023-01-25T20:06:43.535Z,100668.44
2023-01-25T20:09:14.301Z,100674.13
2023-01-25T20:11:41.664Z,100675.44
2023-01-25T20:14:11.300Z,100676.47
2023-01-25T20:16:38.605Z,100672.63
2023-01-25T20:19:06.144Z,100669.44
2023-01-25T20:21:33.928Z,100664.97
2023-01-25T20:24:03.480Z,100652.16
2023-01-25T20:26:32.677Z,100650.41
2023-01-25T20:29:00.517Z,100658.63
2023-01-25T20:31:29.382Z,100653.78
2023-01-25T20:34:04.207Z,100652.28
2023-01-25T20:36:32.840Z,100655.28
2023-01-25T20:39:00.118Z,100654.28
2023-01-25T20:41:27.470Z,100649.22
2023-01-25T20:43:54.688Z,100648.88
2023-01-25T20:46:22.028Z,100649.19
2023-01-25T20:48:49.323Z,100638.38
2023-01-25T20:51:21.588Z,100641.66
2023-01-25T20:53:49.722Z,100638.22
2023-01-25T20:56:18.412Z,100629.19
2023-01-25T20:58:50.721Z,100623.06
2023-01-25T21:01:19.776Z,100620.00
2023-01-25T21:03:47.454Z,100606.16
2023-01-25T21:06:15.186Z,100615.94
2023-01-25T21:08:42.436Z,100606.31
2023-01-25T21:11:10.202Z,100609.91
2023-01-25T21:13:37.758Z,100617.03
2023-01-25T21:16:06.762Z,100606.34
2023-01-25T21:18:35.396Z,100614.38
2023-01-25T21:21:04.039Z,100615.84
2023-01-25T21:23:33.559Z,100606.50
2023-01-25T21:26:01.881Z,100615.84
2023-01-25T21:28:29.523Z,100608.41
2023-01-25T21:30:57.157Z,100600.56
2023-01-25T21:33:24.602Z,100595.91
2023-01-25T21:35:54.324Z,100583.25
2023-01-25T21:38:21.759Z,100587.09
2023-01-25T21:40:49.139Z,100586.41
2023-01-25T21:43:18.065Z,100583.03
2023-01-25T21:46:03.801Z,100579.09
2023-01-25T21:48:49.851Z,100571.72
2023-01-25T21:51:49.210Z,100573.63
2023-01-25T21:54:18.806Z,100567.84
2023-01-25T21:56:46.977Z,100554.59
2023-01-25T21:59:14.461Z,100565.00
2023-01-25T22:01:44.288Z,100557.34
2023-01-25T22:04:12.164Z,100576.97
2023-01-25T22:06:40.077Z,100569.38
2023-01-25T22:09:07.703Z,100568.34
2023-01-25T22:11:35.311Z,100566.00
2023-01-25T22:14:02.643Z,100573.47
2023-01-25T22:16:30.524Z,100573.78
2023-01-25T22:18:59.563Z,100568.28
2023-01-25T22:21:32.148Z,100579.38
2023-01-25T22:24:00.410Z,100556.00
2023-01-25T22:26:32.188Z,100563.28
2023-01-25T22:29:00.155Z,100565.22
2023-01-25T22:31:31.374Z,100568.75
2023-01-25T22:33:59.266Z,100551.03
2023-01-25T22:36:27.595Z,100553.81
2023-01-25T22:38:55.406Z,100552.66
2023-01-25T22:41:24.184Z,100553.53
2023-01-25T22:43:51.834Z,100547.44
2023-01-25T22:46:20.571Z,100550.88
2023-01-25T22:48:48.095Z,100547.88
2023-01-25T22:51:17.241Z,100553.06
2023-01-25T22:53:44.600Z,100557.69
2023-01-25T22:56:11.787Z,100546.34
2023-01-25T22:58:39.776Z,100546.66
2023-01-25T23:01:13.072Z,100546.19
2023-01-25T23:03:40.526Z,100530.50
2023-01-25T23:06:08.744Z,100527.31
2023-01-25T23:08:36.976Z,100503.13
2023-01-25T23:11:06.342Z,100509.03
2023-01-25T23:13:33.608Z,100513.94
2023-01-25T23:16:02.588Z,100517.09
2023-01-25T23:18:48.385Z,100513.38
2023-01-25T23:21:16.149Z,100519.16
2023-01-25T23:23:43.384Z,100515.59
2023-01-25T23:26:10.876Z,100517.81
2023-01-25T23:28:38.144Z,100521.66
2023-01-25T23:31:18.814Z,100523.78
2023-01-25T23:33:47.031Z,100526.44
2023-01-25T23:36:18.002Z,100529.88
2023-01-25T23:38:46.348Z,100518.88
2023-01-25T23:41:14.072Z,100526.63
2023-01-25T23:43:41.807Z,100512.38
2023-01-25T23:46:09.377Z,100503.16
2023-01-25T23:48:36.859Z,100505.34
2023-01-25T23:51:04.550Z,100503.84
2023-01-25T23:53:31.841Z,100507.53
2023-01-25T23:56:00.421Z,100507.63
2023-01-25T23:58:28.369Z,100501.44
